Aviation Digital Data Service (ADDS)

Output produced by METARs form (1847 UTC 18 April 2019)
found at http://www.aviationweather.gov/metar/data/
 
METAR text: KTMK 181835Z AUTO 32003KT 10SM CLR 18/10 A3023 RMK AO2
Conditions at: KTMK (TILLAMOOK , OR, US) observed 1835 UTC 18 April 2019
Temperature: 18.0°C (64°F)
Dewpoint: 10.0°C (50°F) [RH = 59%]
Pressure (altimeter): 30.23 inches Hg (1023.8 mb)
Winds: from the NW (320 degrees) at 3 MPH (3 knots; 1.5 m/s)
Visibility: 10 or more miles (16+ km)
Ceiling: at least 12,000 feet AGL
Clouds: sky clear below 12,000 feet AGL
Weather: automated observation with no human augmentation;
there may or may not be significant weather present at this time

METAR text: KTMK 181815Z AUTO 00000KT 10SM SCT090 17/10 A3022 RMK AO2
Conditions at: KTMK (TILLAMOOK , OR, US) observed 1815 UTC 18 April 2019
Temperature: 17.0°C (63°F)
Dewpoint: 10.0°C (50°F) [RH = 63%]
Pressure (altimeter): 30.22 inches Hg (1023.5 mb)
Winds: calm
Visibility: 10 or more miles (16+ km)
Ceiling: at least 12,000 feet AGL
Clouds: scattered clouds at 9000 feet AGL
Weather: automated observation with no human augmentation;
there may or may not be significant weather present at this time

METAR text: KTMK 181755Z AUTO 36003KT 10SM SCT090 16/11 A3024 RMK AO2
Conditions at: KTMK (TILLAMOOK , OR, US) observed 1755 UTC 18 April 2019
Temperature: 16.0°C (61°F)
Dewpoint: 11.0°C (52°F) [RH = 72%]
Pressure (altimeter): 30.24 inches Hg (1024.1 mb)
Winds: from the N (360 degrees) at 3 MPH (3 knots; 1.5 m/s)
Visibility: 10 or more miles (16+ km)
Ceiling: at least 12,000 feet AGL
Clouds: scattered clouds at 9000 feet AGL
Weather: automated observation with no human augmentation;
there may or may not be significant weather present at this time

METAR text: KTMK 181735Z AUTO 00000KT 10SM CLR 16/11 A3025 RMK AO2
Conditions at: KTMK (TILLAMOOK , OR, US) observed 1735 UTC 18 April 2019
Temperature: 16.0°C (61°F)
Dewpoint: 11.0°C (52°F) [RH = 72%]
Pressure (altimeter): 30.25 inches Hg (1024.5 mb)
Winds: calm
Visibility: 10 or more miles (16+ km)
Ceiling: at least 12,000 feet AGL
Clouds: sky clear below 12,000 feet AGL
Weather: automated observation with no human augmentation;
there may or may not be significant weather present at this time

METAR text: KTMK 181715Z AUTO 00000KT 10SM CLR 15/10 A3024 RMK AO2
Conditions at: KTMK (TILLAMOOK , OR, US) observed 1715 UTC 18 April 2019
Temperature: 15.0°C (59°F)
Dewpoint: 10.0°C (50°F) [RH = 72%]
Pressure (altimeter): 30.24 inches Hg (1024.1 mb)
Winds: calm
Visibility: 10 or more miles (16+ km)
Ceiling: at least 12,000 feet AGL
Clouds: sky clear below 12,000 feet AGL
Weather: automated observation with no human augmentation;
there may or may not be significant weather present at this time

METAR text: KTMK 181655Z AUTO 00000KT 10SM CLR 13/11 A3025 RMK AO2
Conditions at: KTMK (TILLAMOOK , OR, US) observed 1655 UTC 18 April 2019
Temperature: 13.0°C (55°F)
Dewpoint: 11.0°C (52°F) [RH = 88%]
Pressure (altimeter): 30.25 inches Hg (1024.5 mb)
Winds: calm
Visibility: 10 or more miles (16+ km)
Ceiling: at least 12,000 feet AGL
Clouds: sky clear below 12,000 feet AGL
Weather: automated observation with no human augmentation;
there may or may not be significant weather present at this time

METAR text: KTMK 181635Z AUTO 00000KT 10SM -RA SCT034 SCT050 SCT065 12/11 A3025 RMK AO2
Conditions at: KTMK (TILLAMOOK , OR, US) observed 1635 UTC 18 April 2019
Temperature: 12.0°C (54°F)
Dewpoint: 11.0°C (52°F) [RH = 94%]
Pressure (altimeter): 30.25 inches Hg (1024.5 mb)
Winds: calm
Visibility: 10 or more miles (16+ km)
Ceiling: at least 12,000 feet AGL
Clouds: scattered clouds at 3400 feet AGL
scattered clouds at 5000 feet AGL
scattered clouds at 6500 feet AGL
Weather: -RA  (light rain)

METAR text: KTMK 181615Z AUTO 00000KT 10SM SCT120 12/10 A3025 RMK AO2
Conditions at: KTMK (TILLAMOOK , OR, US) observed 1615 UTC 18 April 2019
Temperature: 12.0°C (54°F)
Dewpoint: 10.0°C (50°F) [RH = 88%]
Pressure (altimeter): 30.25 inches Hg (1024.5 mb)
Winds: calm
Visibility: 10 or more miles (16+ km)
Ceiling: at least 12,000 feet AGL
Clouds: scattered clouds at 12000 feet AGL
Weather: automated observation with no human augmentation;
there may or may not be significant weather present at this time

METAR text: KTMK 181555Z AUTO 00000KT 10SM CLR 11/10 A3026 RMK AO2
Conditions at: KTMK (TILLAMOOK , OR, US) observed 1555 UTC 18 April 2019
Temperature: 11.0°C (52°F)
Dewpoint: 10.0°C (50°F) [RH = 94%]
Pressure (altimeter): 30.26 inches Hg (1024.8 mb)
Winds: calm
Visibility: 10 or more miles (16+ km)
Ceiling: at least 12,000 feet AGL
Clouds: sky clear below 12,000 feet AGL
Weather: automated observation with no human augmentation;
there may or may not be significant weather present at this time

METAR text: KTMK 181540Z AUTO 00000KT 10SM CLR 11/10 A3026 RMK AO2
Conditions at: KTMK (TILLAMOOK , OR, US) observed 1540 UTC 18 April 2019
Temperature: 11.0°C (52°F)
Dewpoint: 10.0°C (50°F) [RH = 94%]
Pressure (altimeter): 30.26 inches Hg (1024.8 mb)
Winds: calm
Visibility: 10 or more miles (16+ km)
Ceiling: at least 12,000 feet AGL
Clouds: sky clear below 12,000 feet AGL
Weather: automated observation with no human augmentation;
there may or may not be significant weather present at this time

METAR text: KTMK 181515Z AUTO 00000KT 10SM SCT120 10/09 A3025 RMK AO2
Conditions at: KTMK (TILLAMOOK , OR, US) observed 1515 UTC 18 April 2019
Temperature: 10.0°C (50°F)
Dewpoint: 9.0°C (48°F) [RH = 93%]
Pressure (altimeter): 30.25 inches Hg (1024.5 mb)
Winds: calm
Visibility: 10 or more miles (16+ km)
Ceiling: at least 12,000 feet AGL
Clouds: scattered clouds at 12000 feet AGL
Weather: automated observation with no human augmentation;
there may or may not be significant weather present at this time

METAR text: KTMK 181455Z AUTO 00000KT 10SM SCT120 10/09 A3025 RMK AO2
Conditions at: KTMK (TILLAMOOK , OR, US) observed 1455 UTC 18 April 2019
Temperature: 10.0°C (50°F)
Dewpoint: 9.0°C (48°F) [RH = 93%]
Pressure (altimeter): 30.25 inches Hg (1024.5 mb)
Winds: calm
Visibility: 10 or more miles (16+ km)
Ceiling: at least 12,000 feet AGL
Clouds: scattered clouds at 12000 feet AGL
Weather: automated observation with no human augmentation;
there may or may not be significant weather present at this time

METAR text: KTMK 181435Z AUTO 00000KT 10SM SCT070 SCT120 09/08 A3026 RMK AO2
Conditions at: KTMK (TILLAMOOK , OR, US) observed 1435 UTC 18 April 2019
Temperature: 9.0°C (48°F)
Dewpoint: 8.0°C (46°F) [RH = 93%]
Pressure (altimeter): 30.26 inches Hg (1024.8 mb)
Winds: calm
Visibility: 10 or more miles (16+ km)
Ceiling: at least 12,000 feet AGL
Clouds: scattered clouds at 7000 feet AGL
scattered clouds at 12000 feet AGL
Weather: automated observation with no human augmentation;
there may or may not be significant weather present at this time

METAR text: KTMK 181415Z AUTO 15003KT 10SM SCT070 SCT110 08/07 A3025 RMK AO2
Conditions at: KTMK (TILLAMOOK , OR, US) observed 1415 UTC 18 April 2019
Temperature: 8.0°C (46°F)
Dewpoint: 7.0°C (45°F) [RH = 93%]
Pressure (altimeter): 30.25 inches Hg (1024.5 mb)
Winds: from the SSE (150 degrees) at 3 MPH (3 knots; 1.5 m/s)
Visibility: 10 or more miles (16+ km)
Ceiling: at least 12,000 feet AGL
Clouds: scattered clouds at 7000 feet AGL
scattered clouds at 11000 feet AGL
Weather: automated observation with no human augmentation;
there may or may not be significant weather present at this time

METAR text: KTMK 181355Z AUTO 00000KT 10SM SCT120 07/07 A3025 RMK AO2
Conditions at: KTMK (TILLAMOOK , OR, US) observed 1355 UTC 18 April 2019
Temperature: 7.0°C (45°F)
Dewpoint: 7.0°C (45°F) [RH = 100%]
Pressure (altimeter): 30.25 inches Hg (1024.5 mb)
Winds: calm
Visibility: 10 or more miles (16+ km)
Ceiling: at least 12,000 feet AGL
Clouds: scattered clouds at 12000 feet AGL
Weather: automated observation with no human augmentation;
there may or may not be significant weather present at this time

METAR text: KTMK 181335Z AUTO 00000KT 10SM SCT070 BKN110 07/07 A3025 RMK AO2
Conditions at: KTMK (TILLAMOOK , OR, US) observed 1335 UTC 18 April 2019
Temperature: 7.0°C (45°F)
Dewpoint: 7.0°C (45°F) [RH = 100%]
Pressure (altimeter): 30.25 inches Hg (1024.5 mb)
Winds: calm
Visibility: 10 or more miles (16+ km)
Ceiling: 11000 feet AGL
Clouds: scattered clouds at 7000 feet AGL
broken clouds at 11000 feet AGL
Weather: automated observation with no human augmentation;
there may or may not be significant weather present at this time

METAR text: KTMK 181315Z AUTO 00000KT 10SM SCT080 OVC110 08/07 A3025 RMK AO2
Conditions at: KTMK (TILLAMOOK , OR, US) observed 1315 UTC 18 April 2019
Temperature: 8.0°C (46°F)
Dewpoint: 7.0°C (45°F) [RH = 93%]
Pressure (altimeter): 30.25 inches Hg (1024.5 mb)
Winds: calm
Visibility: 10 or more miles (16+ km)
Ceiling: 11000 feet AGL
Clouds: scattered clouds at 8000 feet AGL
overcast cloud deck at 11000 feet AGL
Weather: automated observation with no human augmentation;
there may or may not be significant weather present at this time

METAR text: KTMK 181255Z AUTO 00000KT 10SM OVC080 08/07 A3026 RMK AO2
Conditions at: KTMK (TILLAMOOK , OR, US) observed 1255 UTC 18 April 2019
Temperature: 8.0°C (46°F)
Dewpoint: 7.0°C (45°F) [RH = 93%]
Pressure (altimeter): 30.26 inches Hg (1024.8 mb)
Winds: calm
Visibility: 10 or more miles (16+ km)
Ceiling: 8000 feet AGL
Clouds: overcast cloud deck at 8000 feet AGL
Weather: automated observation with no human augmentation;
there may or may not be significant weather present at this time

METAR text: KTMK 181235Z AUTO 13003KT 10SM BKN085 08/08 A3026 RMK AO2
Conditions at: KTMK (TILLAMOOK , OR, US) observed 1235 UTC 18 April 2019
Temperature: 8.0°C (46°F)
Dewpoint: 8.0°C (46°F) [RH = 100%]
Pressure (altimeter): 30.26 inches Hg (1024.8 mb)
Winds: from the SE (130 degrees) at 3 MPH (3 knots; 1.5 m/s)
Visibility: 10 or more miles (16+ km)
Ceiling: 8500 feet AGL
Clouds: broken clouds at 8500 feet AGL
Weather: automated observation with no human augmentation;
there may or may not be significant weather present at this time

METAR text: KTMK 181215Z AUTO 00000KT 10SM SCT085 07/07 A3027 RMK AO2
Conditions at: KTMK (TILLAMOOK , OR, US) observed 1215 UTC 18 April 2019
Temperature: 7.0°C (45°F)
Dewpoint: 7.0°C (45°F) [RH = 100%]
Pressure (altimeter): 30.27 inches Hg (1025.1 mb)
Winds: calm
Visibility: 10 or more miles (16+ km)
Ceiling: at least 12,000 feet AGL
Clouds: scattered clouds at 8500 feet AGL
Weather: automated observation with no human augmentation;
there may or may not be significant weather present at this time

METAR text: KTMK 181155Z AUTO 00000KT 10SM SCT095 07/07 A3027 RMK AO2
Conditions at: KTMK (TILLAMOOK , OR, US) observed 1155 UTC 18 April 2019
Temperature: 7.0°C (45°F)
Dewpoint: 7.0°C (45°F) [RH = 100%]
Pressure (altimeter): 30.27 inches Hg (1025.1 mb)
Winds: calm
Visibility: 10 or more miles (16+ km)
Ceiling: at least 12,000 feet AGL
Clouds: scattered clouds at 9500 feet AGL
Weather: automated observation with no human augmentation;
there may or may not be significant weather present at this time

METAR text: KTMK 181135Z AUTO 13003KT 10SM SCT095 SCT110 07/06 A3028 RMK AO2
Conditions at: KTMK (TILLAMOOK , OR, US) observed 1135 UTC 18 April 2019
Temperature: 7.0°C (45°F)
Dewpoint: 6.0°C (43°F) [RH = 93%]
Pressure (altimeter): 30.28 inches Hg (1025.5 mb)
Winds: from the SE (130 degrees) at 3 MPH (3 knots; 1.5 m/s)
Visibility: 10 or more miles (16+ km)
Ceiling: at least 12,000 feet AGL
Clouds: scattered clouds at 9500 feet AGL
scattered clouds at 11000 feet AGL
Weather: automated observation with no human augmentation;
there may or may not be significant weather present at this time

METAR text: KTMK 181115Z AUTO 15003KT 10SM BKN110 07/07 A3028 RMK AO2
Conditions at: KTMK (TILLAMOOK , OR, US) observed 1115 UTC 18 April 2019
Temperature: 7.0°C (45°F)
Dewpoint: 7.0°C (45°F) [RH = 100%]
Pressure (altimeter): 30.28 inches Hg (1025.5 mb)
Winds: from the SSE (150 degrees) at 3 MPH (3 knots; 1.5 m/s)
Visibility: 10 or more miles (16+ km)
Ceiling: 11000 feet AGL
Clouds: broken clouds at 11000 feet AGL
Weather: automated observation with no human augmentation;
there may or may not be significant weather present at this time

METAR text: KTMK 181055Z AUTO 00000KT 10SM BKN110 07/07 A3028 RMK AO2
Conditions at: KTMK (TILLAMOOK , OR, US) observed 1055 UTC 18 April 2019
Temperature: 7.0°C (45°F)
Dewpoint: 7.0°C (45°F) [RH = 100%]
Pressure (altimeter): 30.28 inches Hg (1025.5 mb)
Winds: calm
Visibility: 10 or more miles (16+ km)
Ceiling: 11000 feet AGL
Clouds: broken clouds at 11000 feet AGL
Weather: automated observation with no human augmentation;
there may or may not be significant weather present at this time

METAR text: KTMK 181035Z AUTO 00000KT 10SM SCT095 OVC110 07/07 A3028 RMK AO2
Conditions at: KTMK (TILLAMOOK , OR, US) observed 1035 UTC 18 April 2019
Temperature: 7.0°C (45°F)
Dewpoint: 7.0°C (45°F) [RH = 100%]
Pressure (altimeter): 30.28 inches Hg (1025.5 mb)
Winds: calm
Visibility: 10 or more miles (16+ km)
Ceiling: 11000 feet AGL
Clouds: scattered clouds at 9500 feet AGL
overcast cloud deck at 11000 feet AGL
Weather: automated observation with no human augmentation;
there may or may not be significant weather present at this time

METAR text: KTMK 181015Z AUTO 18003KT 10SM SCT110 07/07 A3028 RMK AO2
Conditions at: KTMK (TILLAMOOK , OR, US) observed 1015 UTC 18 April 2019
Temperature: 7.0°C (45°F)
Dewpoint: 7.0°C (45°F) [RH = 100%]
Pressure (altimeter): 30.28 inches Hg (1025.5 mb)
Winds: from the S (180 degrees) at 3 MPH (3 knots; 1.5 m/s)
Visibility: 10 or more miles (16+ km)
Ceiling: at least 12,000 feet AGL
Clouds: scattered clouds at 11000 feet AGL
Weather: automated observation with no human augmentation;
there may or may not be significant weather present at this time

METAR text: KTMK 180955Z AUTO 00000KT 10SM CLR 07/07 A3028 RMK AO2
Conditions at: KTMK (TILLAMOOK , OR, US) observed 0955 UTC 18 April 2019
Temperature: 7.0°C (45°F)
Dewpoint: 7.0°C (45°F) [RH = 100%]
Pressure (altimeter): 30.28 inches Hg (1025.5 mb)
Winds: calm
Visibility: 10 or more miles (16+ km)
Ceiling: at least 12,000 feet AGL
Clouds: sky clear below 12,000 feet AGL
Weather: automated observation with no human augmentation;
there may or may not be significant weather present at this time

METAR text: KTMK 180935Z AUTO 00000KT 10SM SCT100 08/07 A3030 RMK AO2
Conditions at: KTMK (TILLAMOOK , OR, US) observed 0935 UTC 18 April 2019
Temperature: 8.0°C (46°F)
Dewpoint: 7.0°C (45°F) [RH = 93%]
Pressure (altimeter): 30.30 inches Hg (1026.2 mb)
Winds: calm
Visibility: 10 or more miles (16+ km)
Ceiling: at least 12,000 feet AGL
Clouds: scattered clouds at 10000 feet AGL
Weather: automated observation with no human augmentation;
there may or may not be significant weather present at this time

METAR text: KTMK 180915Z AUTO 14004KT 10SM BKN100 08/08 A3030 RMK AO2
Conditions at: KTMK (TILLAMOOK , OR, US) observed 0915 UTC 18 April 2019
Temperature: 8.0°C (46°F)
Dewpoint: 8.0°C (46°F) [RH = 100%]
Pressure (altimeter): 30.30 inches Hg (1026.2 mb)
Winds: from the SE (140 degrees) at 5 MPH (4 knots; 2.1 m/s)
Visibility: 10 or more miles (16+ km)
Ceiling: 10000 feet AGL
Clouds: broken clouds at 10000 feet AGL
Weather: automated observation with no human augmentation;
there may or may not be significant weather present at this time

METAR text: KTMK 180855Z AUTO 00000KT 10SM CLR 07/07 A3031 RMK AO2
Conditions at: KTMK (TILLAMOOK , OR, US) observed 0855 UTC 18 April 2019
Temperature: 7.0°C (45°F)
Dewpoint: 7.0°C (45°F) [RH = 100%]
Pressure (altimeter): 30.31 inches Hg (1026.5 mb)
Winds: calm
Visibility: 10 or more miles (16+ km)
Ceiling: at least 12,000 feet AGL
Clouds: sky clear below 12,000 feet AGL
Weather: automated observation with no human augmentation;
there may or may not be significant weather present at this time

METAR text: KTMK 180835Z AUTO 00000KT 10SM SCT001 08/08 A3030 RMK AO2
Conditions at: KTMK (TILLAMOOK , OR, US) observed 0835 UTC 18 April 2019
Temperature: 8.0°C (46°F)
Dewpoint: 8.0°C (46°F) [RH = 100%]
Pressure (altimeter): 30.30 inches Hg (1026.2 mb)
Winds: calm
Visibility: 10 or more miles (16+ km)
Ceiling: at least 12,000 feet AGL
Clouds: scattered clouds at 100 feet AGL
Weather: automated observation with no human augmentation;
there may or may not be significant weather present at this time

METAR text: KTMK 180815Z AUTO 15003KT 1 1/2SM BR SCT001 07/07 A3031 RMK AO2
Conditions at: KTMK (TILLAMOOK , OR, US) observed 0815 UTC 18 April 2019
Temperature: 7.0°C (45°F)
Dewpoint: 7.0°C (45°F) [RH = 100%]
Pressure (altimeter): 30.31 inches Hg (1026.5 mb)
Winds: from the SSE (150 degrees) at 3 MPH (3 knots; 1.5 m/s)
Visibility: 1.50 miles (2.41 km)
Ceiling: at least 12,000 feet AGL
Clouds: scattered clouds at 100 feet AGL
Weather: BR  (mist)

METAR text: KTMK 180755Z AUTO 00000KT 10SM CLR 08/07 A3032 RMK AO2
Conditions at: KTMK (TILLAMOOK , OR, US) observed 0755 UTC 18 April 2019
Temperature: 8.0°C (46°F)
Dewpoint: 7.0°C (45°F) [RH = 93%]
Pressure (altimeter): 30.32 inches Hg (1026.8 mb)
Winds: calm
Visibility: 10 or more miles (16+ km)
Ceiling: at least 12,000 feet AGL
Clouds: sky clear below 12,000 feet AGL
Weather: automated observation with no human augmentation;
there may or may not be significant weather present at this time

METAR text: KTMK 180735Z AUTO 00000KT 10SM CLR 08/07 A3032 RMK AO2
Conditions at: KTMK (TILLAMOOK , OR, US) observed 0735 UTC 18 April 2019
Temperature: 8.0°C (46°F)
Dewpoint: 7.0°C (45°F) [RH = 93%]
Pressure (altimeter): 30.32 inches Hg (1026.8 mb)
Winds: calm
Visibility: 10 or more miles (16+ km)
Ceiling: at least 12,000 feet AGL
Clouds: sky clear below 12,000 feet AGL
Weather: automated observation with no human augmentation;
there may or may not be significant weather present at this time

METAR text: KTMK 180715Z AUTO 15003KT 7SM CLR 08/08 A3033 RMK AO2
Conditions at: KTMK (TILLAMOOK , OR, US) observed 0715 UTC 18 April 2019
Temperature: 8.0°C (46°F)
Dewpoint: 8.0°C (46°F) [RH = 100%]
Pressure (altimeter): 30.33 inches Hg (1027.2 mb)
Winds: from the SSE (150 degrees) at 3 MPH (3 knots; 1.5 m/s)
Visibility: 7 miles (11 km)
Ceiling: at least 12,000 feet AGL
Clouds: sky clear below 12,000 feet AGL
Weather: automated observation with no human augmentation;
there may or may not be significant weather present at this time

METAR text: KTMK 180655Z AUTO 00000KT 10SM CLR 08/07 A3033 RMK AO2
Conditions at: KTMK (TILLAMOOK , OR, US) observed 0655 UTC 18 April 2019
Temperature: 8.0°C (46°F)
Dewpoint: 7.0°C (45°F) [RH = 93%]
Pressure (altimeter): 30.33 inches Hg (1027.2 mb)
Winds: calm
Visibility: 10 or more miles (16+ km)
Ceiling: at least 12,000 feet AGL
Clouds: sky clear below 12,000 feet AGL
Weather: automated observation with no human augmentation;
there may or may not be significant weather present at this time

METAR text: KTMK 180635Z AUTO 00000KT 7SM CLR 09/08 A3033 RMK AO2
Conditions at: KTMK (TILLAMOOK , OR, US) observed 0635 UTC 18 April 2019
Temperature: 9.0°C (48°F)
Dewpoint: 8.0°C (46°F) [RH = 93%]
Pressure (altimeter): 30.33 inches Hg (1027.2 mb)
Winds: calm
Visibility: 7 miles (11 km)
Ceiling: at least 12,000 feet AGL
Clouds: sky clear below 12,000 feet AGL
Weather: automated observation with no human augmentation;
there may or may not be significant weather present at this time

METAR text: KTMK 180615Z AUTO 00000KT 7SM CLR 09/08 A3033 RMK AO2
Conditions at: KTMK (TILLAMOOK , OR, US) observed 0615 UTC 18 April 2019
Temperature: 9.0°C (48°F)
Dewpoint: 8.0°C (46°F) [RH = 93%]
Pressure (altimeter): 30.33 inches Hg (1027.2 mb)
Winds: calm
Visibility: 7 miles (11 km)
Ceiling: at least 12,000 feet AGL
Clouds: sky clear below 12,000 feet AGL
Weather: automated observation with no human augmentation;
there may or may not be significant weather present at this time

METAR text: KTMK 180555Z AUTO 00000KT 10SM CLR 10/08 A3034 RMK AO2
Conditions at: KTMK (TILLAMOOK , OR, US) observed 0555 UTC 18 April 2019
Temperature: 10.0°C (50°F)
Dewpoint: 8.0°C (46°F) [RH = 87%]
Pressure (altimeter): 30.34 inches Hg (1027.5 mb)
Winds: calm
Visibility: 10 or more miles (16+ km)
Ceiling: at least 12,000 feet AGL
Clouds: sky clear below 12,000 feet AGL
Weather: automated observation with no human augmentation;
there may or may not be significant weather present at this time

METAR text: KTMK 180535Z AUTO 00000KT 10SM CLR 10/09 A3034 RMK AO2
Conditions at: KTMK (TILLAMOOK , OR, US) observed 0535 UTC 18 April 2019
Temperature: 10.0°C (50°F)
Dewpoint: 9.0°C (48°F) [RH = 93%]
Pressure (altimeter): 30.34 inches Hg (1027.5 mb)
Winds: calm
Visibility: 10 or more miles (16+ km)
Ceiling: at least 12,000 feet AGL
Clouds: sky clear below 12,000 feet AGL
Weather: automated observation with no human augmentation;
there may or may not be significant weather present at this time

METAR text: KTMK 180515Z AUTO 00000KT 10SM CLR 10/09 A3034 RMK AO2
Conditions at: KTMK (TILLAMOOK , OR, US) observed 0515 UTC 18 April 2019
Temperature: 10.0°C (50°F)
Dewpoint: 9.0°C (48°F) [RH = 93%]
Pressure (altimeter): 30.34 inches Hg (1027.5 mb)
Winds: calm
Visibility: 10 or more miles (16+ km)
Ceiling: at least 12,000 feet AGL
Clouds: sky clear below 12,000 feet AGL
Weather: automated observation with no human augmentation;
there may or may not be significant weather present at this time

METAR text: KTMK 180455Z AUTO 00000KT 10SM CLR 11/10 A3034 RMK AO2
Conditions at: KTMK (TILLAMOOK , OR, US) observed 0455 UTC 18 April 2019
Temperature: 11.0°C (52°F)
Dewpoint: 10.0°C (50°F) [RH = 94%]
Pressure (altimeter): 30.34 inches Hg (1027.5 mb)
Winds: calm
Visibility: 10 or more miles (16+ km)
Ceiling: at least 12,000 feet AGL
Clouds: sky clear below 12,000 feet AGL
Weather: automated observation with no human augmentation;
there may or may not be significant weather present at this time

METAR text: KTMK 180435Z AUTO 00000KT 10SM CLR 11/10 A3034 RMK AO2
Conditions at: KTMK (TILLAMOOK , OR, US) observed 0435 UTC 18 April 2019
Temperature: 11.0°C (52°F)
Dewpoint: 10.0°C (50°F) [RH = 94%]
Pressure (altimeter): 30.34 inches Hg (1027.5 mb)
Winds: calm
Visibility: 10 or more miles (16+ km)
Ceiling: at least 12,000 feet AGL
Clouds: sky clear below 12,000 feet AGL
Weather: automated observation with no human augmentation;
there may or may not be significant weather present at this time

METAR text: KTMK 180415Z AUTO 00000KT 10SM CLR 11/09 A3033 RMK AO2
Conditions at: KTMK (TILLAMOOK , OR, US) observed 0415 UTC 18 April 2019
Temperature: 11.0°C (52°F)
Dewpoint: 9.0°C (48°F) [RH = 87%]
Pressure (altimeter): 30.33 inches Hg (1027.2 mb)
Winds: calm
Visibility: 10 or more miles (16+ km)
Ceiling: at least 12,000 feet AGL
Clouds: sky clear below 12,000 feet AGL
Weather: automated observation with no human augmentation;
there may or may not be significant weather present at this time

METAR text: KTMK 180355Z AUTO 00000KT 10SM CLR 11/09 A3033 RMK AO2
Conditions at: KTMK (TILLAMOOK , OR, US) observed 0355 UTC 18 April 2019
Temperature: 11.0°C (52°F)
Dewpoint: 9.0°C (48°F) [RH = 87%]
Pressure (altimeter): 30.33 inches Hg (1027.2 mb)
Winds: calm
Visibility: 10 or more miles (16+ km)
Ceiling: at least 12,000 feet AGL
Clouds: sky clear below 12,000 feet AGL
Weather: automated observation with no human augmentation;
there may or may not be significant weather present at this time

METAR text: KTMK 180335Z AUTO 28003KT 10SM CLR 11/10 A3032 RMK AO2
Conditions at: KTMK (TILLAMOOK , OR, US) observed 0335 UTC 18 April 2019
Temperature: 11.0°C (52°F)
Dewpoint: 10.0°C (50°F) [RH = 94%]
Pressure (altimeter): 30.32 inches Hg (1026.8 mb)
Winds: from the W (280 degrees) at 3 MPH (3 knots; 1.5 m/s)
Visibility: 10 or more miles (16+ km)
Ceiling: at least 12,000 feet AGL
Clouds: sky clear below 12,000 feet AGL
Weather: automated observation with no human augmentation;
there may or may not be significant weather present at this time

METAR text: KTMK 180315Z AUTO 28004KT 10SM SCT065 12/10 A3032 RMK AO2
Conditions at: KTMK (TILLAMOOK , OR, US) observed 0315 UTC 18 April 2019
Temperature: 12.0°C (54°F)
Dewpoint: 10.0°C (50°F) [RH = 88%]
Pressure (altimeter): 30.32 inches Hg (1026.8 mb)
Winds: from the W (280 degrees) at 5 MPH (4 knots; 2.1 m/s)
Visibility: 10 or more miles (16+ km)
Ceiling: at least 12,000 feet AGL
Clouds: scattered clouds at 6500 feet AGL
Weather: automated observation with no human augmentation;
there may or may not be significant weather present at this time

METAR text: KTMK 180255Z AUTO 27004KT 10SM SCT065 SCT080 SCT120 12/10 A3031 RMK AO2
Conditions at: KTMK (TILLAMOOK , OR, US) observed 0255 UTC 18 April 2019
Temperature: 12.0°C (54°F)
Dewpoint: 10.0°C (50°F) [RH = 88%]
Pressure (altimeter): 30.31 inches Hg (1026.5 mb)
Winds: from the W (270 degrees) at 5 MPH (4 knots; 2.1 m/s)
Visibility: 10 or more miles (16+ km)
Ceiling: at least 12,000 feet AGL
Clouds: scattered clouds at 6500 feet AGL
scattered clouds at 8000 feet AGL
scattered clouds at 12000 feet AGL
Weather: automated observation with no human augmentation;
there may or may not be significant weather present at this time

METAR text: KTMK 180235Z AUTO 28003KT 10SM BKN080 12/10 A3031 RMK AO2
Conditions at: KTMK (TILLAMOOK , OR, US) observed 0235 UTC 18 April 2019
Temperature: 12.0°C (54°F)
Dewpoint: 10.0°C (50°F) [RH = 88%]
Pressure (altimeter): 30.31 inches Hg (1026.5 mb)
Winds: from the W (280 degrees) at 3 MPH (3 knots; 1.5 m/s)
Visibility: 10 or more miles (16+ km)
Ceiling: 8000 feet AGL
Clouds: broken clouds at 8000 feet AGL
Weather: automated observation with no human augmentation;
there may or may not be significant weather present at this time

METAR text: KTMK 180215Z AUTO 00000KT 10SM OVC080 13/10 A3032 RMK AO2
Conditions at: KTMK (TILLAMOOK , OR, US) observed 0215 UTC 18 April 2019
Temperature: 13.0°C (55°F)
Dewpoint: 10.0°C (50°F) [RH = 82%]
Pressure (altimeter): 30.32 inches Hg (1026.8 mb)
Winds: calm
Visibility: 10 or more miles (16+ km)
Ceiling: 8000 feet AGL
Clouds: overcast cloud deck at 8000 feet AGL
Weather: automated observation with no human augmentation;
there may or may not be significant weather present at this time

METAR text: KTMK 180155Z AUTO 00000KT 10SM OVC080 13/10 A3032 RMK AO2
Conditions at: KTMK (TILLAMOOK , OR, US) observed 0155 UTC 18 April 2019
Temperature: 13.0°C (55°F)
Dewpoint: 10.0°C (50°F) [RH = 82%]
Pressure (altimeter): 30.32 inches Hg (1026.8 mb)
Winds: calm
Visibility: 10 or more miles (16+ km)
Ceiling: 8000 feet AGL
Clouds: overcast cloud deck at 8000 feet AGL
Weather: automated observation with no human augmentation;
there may or may not be significant weather present at this time

METAR text: KTMK 180135Z AUTO 00000KT 10SM OVC080 13/10 A3033 RMK AO2
Conditions at: KTMK (TILLAMOOK , OR, US) observed 0135 UTC 18 April 2019
Temperature: 13.0°C (55°F)
Dewpoint: 10.0°C (50°F) [RH = 82%]
Pressure (altimeter): 30.33 inches Hg (1027.2 mb)
Winds: calm
Visibility: 10 or more miles (16+ km)
Ceiling: 8000 feet AGL
Clouds: overcast cloud deck at 8000 feet AGL
Weather: automated observation with no human augmentation;
there may or may not be significant weather present at this time

METAR text: KTMK 180115Z AUTO 00000KT 10SM BKN080 13/10 A3033 RMK AO2
Conditions at: KTMK (TILLAMOOK , OR, US) observed 0115 UTC 18 April 2019
Temperature: 13.0°C (55°F)
Dewpoint: 10.0°C (50°F) [RH = 82%]
Pressure (altimeter): 30.33 inches Hg (1027.2 mb)
Winds: calm
Visibility: 10 or more miles (16+ km)
Ceiling: 8000 feet AGL
Clouds: broken clouds at 8000 feet AGL
Weather: automated observation with no human augmentation;
there may or may not be significant weather present at this time

METAR text: KTMK 180055Z AUTO 26008KT 10SM SCT021 BKN080 15/10 A3033 RMK AO2
Conditions at: KTMK (TILLAMOOK , OR, US) observed 0055 UTC 18 April 2019
Temperature: 15.0°C (59°F)
Dewpoint: 10.0°C (50°F) [RH = 72%]
Pressure (altimeter): 30.33 inches Hg (1027.2 mb)
Winds: from the W (260 degrees) at 9 MPH (8 knots; 4.1 m/s)
Visibility: 10 or more miles (16+ km)
Ceiling: 8000 feet AGL
Clouds: scattered clouds at 2100 feet AGL
broken clouds at 8000 feet AGL
Weather: automated observation with no human augmentation;
there may or may not be significant weather present at this time

METAR text: KTMK 180030Z AUTO 30005KT 10SM CLR 15/11 A3033 RMK AO2
Conditions at: KTMK (TILLAMOOK , OR, US) observed 0030 UTC 18 April 2019
Temperature: 15.0°C (59°F)
Dewpoint: 11.0°C (52°F) [RH = 77%]
Pressure (altimeter): 30.33 inches Hg (1027.2 mb)
Winds: from the WNW (300 degrees) at 6 MPH (5 knots; 2.6 m/s)
Visibility: 10 or more miles (16+ km)
Ceiling: at least 12,000 feet AGL
Clouds: sky clear below 12,000 feet AGL
Weather: automated observation with no human augmentation;
there may or may not be significant weather present at this time

METAR text: KTMK 180015Z AUTO 30005KT 10SM SCT034 15/10 A3033 RMK AO2
Conditions at: KTMK (TILLAMOOK , OR, US) observed 0015 UTC 18 April 2019
Temperature: 15.0°C (59°F)
Dewpoint: 10.0°C (50°F) [RH = 72%]
Pressure (altimeter): 30.33 inches Hg (1027.2 mb)
Winds: from the WNW (300 degrees) at 6 MPH (5 knots; 2.6 m/s)
Visibility: 10 or more miles (16+ km)
Ceiling: at least 12,000 feet AGL
Clouds: scattered clouds at 3400 feet AGL
Weather: automated observation with no human augmentation;
there may or may not be significant weather present at this time

METAR text: KTMK 172355Z AUTO 28007KT 10SM SCT028 BKN034 16/11 A3033 RMK AO2
Conditions at: KTMK (TILLAMOOK , OR, US) observed 2355 UTC 17 April 2019
Temperature: 16.0°C (61°F)
Dewpoint: 11.0°C (52°F) [RH = 72%]
Pressure (altimeter): 30.33 inches Hg (1027.2 mb)
Winds: from the W (280 degrees) at 8 MPH (7 knots; 3.6 m/s)
Visibility: 10 or more miles (16+ km)
Ceiling: 3400 feet AGL
Clouds: scattered clouds at 2800 feet AGL
broken clouds at 3400 feet AGL
Weather: automated observation with no human augmentation;
there may or may not be significant weather present at this time

METAR text: KTMK 172335Z AUTO 27007KT 10SM SCT028 BKN034 BKN039 14/10 A3033 RMK AO2
Conditions at: KTMK (TILLAMOOK , OR, US) observed 2335 UTC 17 April 2019
Temperature: 14.0°C (57°F)
Dewpoint: 10.0°C (50°F) [RH = 77%]
Pressure (altimeter): 30.33 inches Hg (1027.2 mb)
Winds: from the W (270 degrees) at 8 MPH (7 knots; 3.6 m/s)
Visibility: 10 or more miles (16+ km)
Ceiling: 3400 feet AGL
Clouds: scattered clouds at 2800 feet AGL
broken clouds at 3400 feet AGL
broken clouds at 3900 feet AGL
Weather: automated observation with no human augmentation;
there may or may not be significant weather present at this time

METAR text: KTMK 172315Z AUTO 33003KT 10SM SCT029 SCT041 15/10 A3033 RMK AO2
Conditions at: KTMK (TILLAMOOK , OR, US) observed 2315 UTC 17 April 2019
Temperature: 15.0°C (59°F)
Dewpoint: 10.0°C (50°F) [RH = 72%]
Pressure (altimeter): 30.33 inches Hg (1027.2 mb)
Winds: from the NNW (330 degrees) at 3 MPH (3 knots; 1.5 m/s)
Visibility: 10 or more miles (16+ km)
Ceiling: at least 12,000 feet AGL
Clouds: scattered clouds at 2900 feet AGL
scattered clouds at 4100 feet AGL
Weather: automated observation with no human augmentation;
there may or may not be significant weather present at this time

METAR text: KTMK 172255Z AUTO 06004KT 10SM SCT017 SCT040 15/11 A3034 RMK AO2
Conditions at: KTMK (TILLAMOOK , OR, US) observed 2255 UTC 17 April 2019
Temperature: 15.0°C (59°F)
Dewpoint: 11.0°C (52°F) [RH = 77%]
Pressure (altimeter): 30.34 inches Hg (1027.5 mb)
Winds: from the ENE (60 degrees) at 5 MPH (4 knots; 2.1 m/s)
Visibility: 10 or more miles (16+ km)
Ceiling: at least 12,000 feet AGL
Clouds: scattered clouds at 1700 feet AGL
scattered clouds at 4000 feet AGL
Weather: automated observation with no human augmentation;
there may or may not be significant weather present at this time

METAR text: KTMK 172235Z AUTO 05003KT 10SM SCT017 SCT022 BKN038 15/11 A3035 RMK AO2
Conditions at: KTMK (TILLAMOOK , OR, US) observed 2235 UTC 17 April 2019
Temperature: 15.0°C (59°F)
Dewpoint: 11.0°C (52°F) [RH = 77%]
Pressure (altimeter): 30.35 inches Hg (1027.9 mb)
Winds: from the NE (50 degrees) at 3 MPH (3 knots; 1.5 m/s)
Visibility: 10 or more miles (16+ km)
Ceiling: 3800 feet AGL
Clouds: scattered clouds at 1700 feet AGL
scattered clouds at 2200 feet AGL
broken clouds at 3800 feet AGL
Weather: automated observation with no human augmentation;
there may or may not be significant weather present at this time

METAR text: KTMK 172215Z AUTO 00000KT 10SM SCT021 BKN027 OVC035 15/10 A3036 RMK AO2
Conditions at: KTMK (TILLAMOOK , OR, US) observed 2215 UTC 17 April 2019
Temperature: 15.0°C (59°F)
Dewpoint: 10.0°C (50°F) [RH = 72%]
Pressure (altimeter): 30.36 inches Hg (1028.2 mb)
Winds: calm
Visibility: 10 or more miles (16+ km)
Ceiling: 2700 feet AGL
Clouds: scattered clouds at 2100 feet AGL
broken clouds at 2700 feet AGL
overcast cloud deck at 3500 feet AGL
Weather: automated observation with no human augmentation;
there may or may not be significant weather present at this time

METAR text: KTMK 172155Z AUTO 25004KT 10SM BKN027 BKN034 OVC039 14/10 A3036 RMK AO2
Conditions at: KTMK (TILLAMOOK , OR, US) observed 2155 UTC 17 April 2019
Temperature: 14.0°C (57°F)
Dewpoint: 10.0°C (50°F) [RH = 77%]
Pressure (altimeter): 30.36 inches Hg (1028.2 mb)
Winds: from the WSW (250 degrees) at 5 MPH (4 knots; 2.1 m/s)
Visibility: 10 or more miles (16+ km)
Ceiling: 2700 feet AGL
Clouds: broken clouds at 2700 feet AGL
broken clouds at 3400 feet AGL
overcast cloud deck at 3900 feet AGL
Weather: automated observation with no human augmentation;
there may or may not be significant weather present at this time

METAR text: KTMK 172135Z AUTO 24007KT 10SM OVC039 14/10 A3036 RMK AO2
Conditions at: KTMK (TILLAMOOK , OR, US) observed 2135 UTC 17 April 2019
Temperature: 14.0°C (57°F)
Dewpoint: 10.0°C (50°F) [RH = 77%]
Pressure (altimeter): 30.36 inches Hg (1028.2 mb)
Winds: from the WSW (240 degrees) at 8 MPH (7 knots; 3.6 m/s)
Visibility: 10 or more miles (16+ km)
Ceiling: 3900 feet AGL
Clouds: overcast cloud deck at 3900 feet AGL
Weather: automated observation with no human augmentation;
there may or may not be significant weather present at this time

METAR text: KTMK 172115Z AUTO 22004KT 2 1/2SM HZ OVC035 14/10 A3036 RMK AO2 VIS 3/4V5
Conditions at: KTMK (TILLAMOOK , OR, US) observed 2115 UTC 17 April 2019
Temperature: 14.0°C (57°F)
Dewpoint: 10.0°C (50°F) [RH = 77%]
Pressure (altimeter): 30.36 inches Hg (1028.2 mb)
Winds: from the SW (220 degrees) at 5 MPH (4 knots; 2.1 m/s)
Visibility: 2.50 miles (4.02 km)
Ceiling: 3500 feet AGL
Clouds: overcast cloud deck at 3500 feet AGL
Weather: HZ  (haze)

METAR text: KTMK 172055Z AUTO 24004KT 10SM SCT020 SCT027 OVC033 13/10 A3036 RMK AO2
Conditions at: KTMK (TILLAMOOK , OR, US) observed 2055 UTC 17 April 2019
Temperature: 13.0°C (55°F)
Dewpoint: 10.0°C (50°F) [RH = 82%]
Pressure (altimeter): 30.36 inches Hg (1028.2 mb)
Winds: from the WSW (240 degrees) at 5 MPH (4 knots; 2.1 m/s)
Visibility: 10 or more miles (16+ km)
Ceiling: 3300 feet AGL
Clouds: scattered clouds at 2000 feet AGL
scattered clouds at 2700 feet AGL
overcast cloud deck at 3300 feet AGL
Weather: automated observation with no human augmentation;
there may or may not be significant weather present at this time

METAR text: KTMK 172035Z AUTO 17004KT 10SM SCT015 BKN024 OVC035 13/10 A3036 RMK AO2
Conditions at: KTMK (TILLAMOOK , OR, US) observed 2035 UTC 17 April 2019
Temperature: 13.0°C (55°F)
Dewpoint: 10.0°C (50°F) [RH = 82%]
Pressure (altimeter): 30.36 inches Hg (1028.2 mb)
Winds: from the S (170 degrees) at 5 MPH (4 knots; 2.1 m/s)
Visibility: 10 or more miles (16+ km)
Ceiling: 2400 feet AGL
Clouds: scattered clouds at 1500 feet AGL
broken clouds at 2400 feet AGL
overcast cloud deck at 3500 feet AGL
Weather: automated observation with no human augmentation;
there may or may not be significant weather present at this time

METAR text: KTMK 172015Z AUTO 16005KT 7SM BKN017 BKN024 OVC029 13/10 A3036 RMK AO2
Conditions at: KTMK (TILLAMOOK , OR, US) observed 2015 UTC 17 April 2019
Temperature: 13.0°C (55°F)
Dewpoint: 10.0°C (50°F) [RH = 82%]
Pressure (altimeter): 30.36 inches Hg (1028.2 mb)
Winds: from the SSE (160 degrees) at 6 MPH (5 knots; 2.6 m/s)
Visibility: 7 miles (11 km)
Ceiling: 1700 feet AGL
Clouds: broken clouds at 1700 feet AGL
broken clouds at 2400 feet AGL
overcast cloud deck at 2900 feet AGL
Weather: automated observation with no human augmentation;
there may or may not be significant weather present at this time

METAR text: KTMK 171955Z AUTO 15005KT 10SM BKN015 BKN022 OVC035 13/10 A3037 RMK AO2
Conditions at: KTMK (TILLAMOOK , OR, US) observed 1955 UTC 17 April 2019
Temperature: 13.0°C (55°F)
Dewpoint: 10.0°C (50°F) [RH = 82%]
Pressure (altimeter): 30.37 inches Hg (1028.5 mb)
Winds: from the SSE (150 degrees) at 6 MPH (5 knots; 2.6 m/s)
Visibility: 10 or more miles (16+ km)
Ceiling: 1500 feet AGL
Clouds: broken clouds at 1500 feet AGL
broken clouds at 2200 feet AGL
overcast cloud deck at 3500 feet AGL
Weather: automated observation with no human augmentation;
there may or may not be significant weather present at this time

METAR text: KTMK 171935Z AUTO 21006KT 10SM BKN014 BKN019 OVC035 13/10 A3037 RMK AO2
Conditions at: KTMK (TILLAMOOK , OR, US) observed 1935 UTC 17 April 2019
Temperature: 13.0°C (55°F)
Dewpoint: 10.0°C (50°F) [RH = 82%]
Pressure (altimeter): 30.37 inches Hg (1028.5 mb)
Winds: from the SSW (210 degrees) at 7 MPH (6 knots; 3.1 m/s)
Visibility: 10 or more miles (16+ km)
Ceiling: 1400 feet AGL
Clouds: broken clouds at 1400 feet AGL
broken clouds at 1900 feet AGL
overcast cloud deck at 3500 feet AGL
Weather: automated observation with no human augmentation;
there may or may not be significant weather present at this time

METAR text: KTMK 171915Z AUTO 22004KT 10SM SCT012 BKN016 OVC035 12/10 A3037 RMK AO2
Conditions at: KTMK (TILLAMOOK , OR, US) observed 1915 UTC 17 April 2019
Temperature: 12.0°C (54°F)
Dewpoint: 10.0°C (50°F) [RH = 88%]
Pressure (altimeter): 30.37 inches Hg (1028.5 mb)
Winds: from the SW (220 degrees) at 5 MPH (4 knots; 2.1 m/s)
Visibility: 10 or more miles (16+ km)
Ceiling: 1600 feet AGL
Clouds: scattered clouds at 1200 feet AGL
broken clouds at 1600 feet AGL
overcast cloud deck at 3500 feet AGL
Weather: automated observation with no human augmentation;
there may or may not be significant weather present at this time

METAR text: KTMK 171855Z AUTO 23004KT 10SM BKN012 OVC019 12/10 A3037 RMK AO2
Conditions at: KTMK (TILLAMOOK , OR, US) observed 1855 UTC 17 April 2019
Temperature: 12.0°C (54°F)
Dewpoint: 10.0°C (50°F) [RH = 88%]
Pressure (altimeter): 30.37 inches Hg (1028.5 mb)
Winds: from the SW (230 degrees) at 5 MPH (4 knots; 2.1 m/s)
Visibility: 10 or more miles (16+ km)
Ceiling: 1200 feet AGL
Clouds: broken clouds at 1200 feet AGL
overcast cloud deck at 1900 feet AGL
Weather: automated observation with no human augmentation;
there may or may not be significant weather present at this time

METAR text: KTMK 171835Z AUTO 00000KT 10SM SCT007 BKN012 OVC020 12/10 A3037 RMK AO2
Conditions at: KTMK (TILLAMOOK , OR, US) observed 1835 UTC 17 April 2019
Temperature: 12.0°C (54°F)
Dewpoint: 10.0°C (50°F) [RH = 88%]
Pressure (altimeter): 30.37 inches Hg (1028.5 mb)
Winds: calm
Visibility: 10 or more miles (16+ km)
Ceiling: 1200 feet AGL
Clouds: scattered clouds at 700 feet AGL
broken clouds at 1200 feet AGL
overcast cloud deck at 2000 feet AGL
Weather: automated observation with no human augmentation;
there may or may not be significant weather present at this time

METAR text: KTMK 171815Z AUTO 00000KT 3SM BR SCT007 BKN011 OVC025 11/10 A3037 RMK AO2
Conditions at: KTMK (TILLAMOOK , OR, US) observed 1815 UTC 17 April 2019
Temperature: 11.0°C (52°F)
Dewpoint: 10.0°C (50°F) [RH = 94%]
Pressure (altimeter): 30.37 inches Hg (1028.5 mb)
Winds: calm
Visibility: 3 miles ( 5 km)
Ceiling: 1100 feet AGL
Clouds: scattered clouds at 700 feet AGL
broken clouds at 1100 feet AGL
overcast cloud deck at 2500 feet AGL
Weather: BR  (mist)

METAR text: KTMK 171755Z AUTO 00000KT 2SM BR BKN007 OVC012 11/10 A3036 RMK AO2
Conditions at: KTMK (TILLAMOOK , OR, US) observed 1755 UTC 17 April 2019
Temperature: 11.0°C (52°F)
Dewpoint: 10.0°C (50°F) [RH = 94%]
Pressure (altimeter): 30.36 inches Hg (1028.2 mb)
Winds: calm
Visibility: 2.00 miles (3.22 km)
Ceiling: 700 feet AGL
Clouds: broken clouds at 700 feet AGL
overcast cloud deck at 1200 feet AGL
Weather: BR  (mist)

METAR text: KTMK 171735Z AUTO 00000KT 3SM BR SCT007 OVC013 11/10 A3035 RMK AO2
Conditions at: KTMK (TILLAMOOK , OR, US) observed 1735 UTC 17 April 2019
Temperature: 11.0°C (52°F)
Dewpoint: 10.0°C (50°F) [RH = 94%]
Pressure (altimeter): 30.35 inches Hg (1027.9 mb)
Winds: calm
Visibility: 3 miles ( 5 km)
Ceiling: 1300 feet AGL
Clouds: scattered clouds at 700 feet AGL
overcast cloud deck at 1300 feet AGL
Weather: BR  (mist)

METAR text: KTMK 171715Z AUTO 18003KT 5SM BR SCT009 OVC015 11/10 A3035 RMK AO2
Conditions at: KTMK (TILLAMOOK , OR, US) observed 1715 UTC 17 April 2019
Temperature: 11.0°C (52°F)
Dewpoint: 10.0°C (50°F) [RH = 94%]
Pressure (altimeter): 30.35 inches Hg (1027.9 mb)
Winds: from the S (180 degrees) at 3 MPH (3 knots; 1.5 m/s)
Visibility: 5 miles ( 8 km)
Ceiling: 1500 feet AGL
Clouds: scattered clouds at 900 feet AGL
overcast cloud deck at 1500 feet AGL
Weather: BR  (mist)

METAR text: KTMK 171655Z AUTO 16004KT 3SM BR SCT010 OVC017 11/09 A3034 RMK AO2
Conditions at: KTMK (TILLAMOOK , OR, US) observed 1655 UTC 17 April 2019
Temperature: 11.0°C (52°F)
Dewpoint: 9.0°C (48°F) [RH = 87%]
Pressure (altimeter): 30.34 inches Hg (1027.5 mb)
Winds: from the SSE (160 degrees) at 5 MPH (4 knots; 2.1 m/s)
Visibility: 3 miles ( 5 km)
Ceiling: 1700 feet AGL
Clouds: scattered clouds at 1000 feet AGL
overcast cloud deck at 1700 feet AGL
Weather: BR  (mist)

METAR text: KTMK 171635Z AUTO 16004KT 5SM BR SCT010 OVC017 11/09 A3034 RMK AO2
Conditions at: KTMK (TILLAMOOK , OR, US) observed 1635 UTC 17 April 2019
Temperature: 11.0°C (52°F)
Dewpoint: 9.0°C (48°F) [RH = 87%]
Pressure (altimeter): 30.34 inches Hg (1027.5 mb)
Winds: from the SSE (160 degrees) at 5 MPH (4 knots; 2.1 m/s)
Visibility: 5 miles ( 8 km)
Ceiling: 1700 feet AGL
Clouds: scattered clouds at 1000 feet AGL
overcast cloud deck at 1700 feet AGL
Weather: BR  (mist)

METAR text: KTMK 171615Z AUTO 15005KT 10SM SCT015 SCT021 OVC033 11/09 A3033 RMK AO2
Conditions at: KTMK (TILLAMOOK , OR, US) observed 1615 UTC 17 April 2019
Temperature: 11.0°C (52°F)
Dewpoint: 9.0°C (48°F) [RH = 87%]
Pressure (altimeter): 30.33 inches Hg (1027.2 mb)
Winds: from the SSE (150 degrees) at 6 MPH (5 knots; 2.6 m/s)
Visibility: 10 or more miles (16+ km)
Ceiling: 3300 feet AGL
Clouds: scattered clouds at 1500 feet AGL
scattered clouds at 2100 feet AGL
overcast cloud deck at 3300 feet AGL
Weather: automated observation with no human augmentation;
there may or may not be significant weather present at this time

METAR text: KTMK 171555Z AUTO 15004KT 10SM SCT018 SCT024 OVC033 10/09 A3033 RMK AO2
Conditions at: KTMK (TILLAMOOK , OR, US) observed 1555 UTC 17 April 2019
Temperature: 10.0°C (50°F)
Dewpoint: 9.0°C (48°F) [RH = 93%]
Pressure (altimeter): 30.33 inches Hg (1027.2 mb)
Winds: from the SSE (150 degrees) at 5 MPH (4 knots; 2.1 m/s)
Visibility: 10 or more miles (16+ km)
Ceiling: 3300 feet AGL
Clouds: scattered clouds at 1800 feet AGL
scattered clouds at 2400 feet AGL
overcast cloud deck at 3300 feet AGL
Weather: automated observation with no human augmentation;
there may or may not be significant weather present at this time

METAR text: KTMK 171535Z AUTO 00000KT 3SM BR BKN017 OVC024 10/09 A3033 RMK AO2
Conditions at: KTMK (TILLAMOOK , OR, US) observed 1535 UTC 17 April 2019
Temperature: 10.0°C (50°F)
Dewpoint: 9.0°C (48°F) [RH = 93%]
Pressure (altimeter): 30.33 inches Hg (1027.2 mb)
Winds: calm
Visibility: 3 miles ( 5 km)
Ceiling: 1700 feet AGL
Clouds: broken clouds at 1700 feet AGL
overcast cloud deck at 2400 feet AGL
Weather: BR  (mist)

METAR text: KTMK 171515Z AUTO 00000KT 4SM BR OVC017 10/08 A3033 RMK AO2
Conditions at: KTMK (TILLAMOOK , OR, US) observed 1515 UTC 17 April 2019
Temperature: 10.0°C (50°F)
Dewpoint: 8.0°C (46°F) [RH = 87%]
Pressure (altimeter): 30.33 inches Hg (1027.2 mb)
Winds: calm
Visibility: 4 miles ( 6 km)
Ceiling: 1700 feet AGL
Clouds: overcast cloud deck at 1700 feet AGL
Weather: BR  (mist)

METAR text: KTMK 171455Z AUTO 00000KT 4SM BR OVC017 10/08 A3032 RMK AO2
Conditions at: KTMK (TILLAMOOK , OR, US) observed 1455 UTC 17 April 2019
Temperature: 10.0°C (50°F)
Dewpoint: 8.0°C (46°F) [RH = 87%]
Pressure (altimeter): 30.32 inches Hg (1026.8 mb)
Winds: calm
Visibility: 4 miles ( 6 km)
Ceiling: 1700 feet AGL
Clouds: overcast cloud deck at 1700 feet AGL
Weather: BR  (mist)

METAR text: KTMK 171435Z AUTO 00000KT 10SM BKN017 OVC022 10/08 A3031 RMK AO2
Conditions at: KTMK (TILLAMOOK , OR, US) observed 1435 UTC 17 April 2019
Temperature: 10.0°C (50°F)
Dewpoint: 8.0°C (46°F) [RH = 87%]
Pressure (altimeter): 30.31 inches Hg (1026.5 mb)
Winds: calm
Visibility: 10 or more miles (16+ km)
Ceiling: 1700 feet AGL
Clouds: broken clouds at 1700 feet AGL
overcast cloud deck at 2200 feet AGL
Weather: automated observation with no human augmentation;
there may or may not be significant weather present at this time

METAR text: KTMK 171415Z AUTO 00000KT 10SM SCT019 BKN026 OVC034 09/08 A3030 RMK AO2
Conditions at: KTMK (TILLAMOOK , OR, US) observed 1415 UTC 17 April 2019
Temperature: 9.0°C (48°F)
Dewpoint: 8.0°C (46°F) [RH = 93%]
Pressure (altimeter): 30.30 inches Hg (1026.2 mb)
Winds: calm
Visibility: 10 or more miles (16+ km)
Ceiling: 2600 feet AGL
Clouds: scattered clouds at 1900 feet AGL
broken clouds at 2600 feet AGL
overcast cloud deck at 3400 feet AGL
Weather: automated observation with no human augmentation;
there may or may not be significant weather present at this time

METAR text: KTMK 171355Z AUTO 15004KT 10SM SCT019 SCT024 OVC036 09/08 A3029 RMK AO2
Conditions at: KTMK (TILLAMOOK , OR, US) observed 1355 UTC 17 April 2019
Temperature: 9.0°C (48°F)
Dewpoint: 8.0°C (46°F) [RH = 93%]
Pressure (altimeter): 30.29 inches Hg (1025.8 mb)
Winds: from the SSE (150 degrees) at 5 MPH (4 knots; 2.1 m/s)
Visibility: 10 or more miles (16+ km)
Ceiling: 3600 feet AGL
Clouds: scattered clouds at 1900 feet AGL
scattered clouds at 2400 feet AGL
overcast cloud deck at 3600 feet AGL
Weather: automated observation with no human augmentation;
there may or may not be significant weather present at this time

METAR text: KTMK 171335Z AUTO 00000KT 7SM SCT012 BKN018 OVC038 09/08 A3029 RMK AO2
Conditions at: KTMK (TILLAMOOK , OR, US) observed 1335 UTC 17 April 2019
Temperature: 9.0°C (48°F)
Dewpoint: 8.0°C (46°F) [RH = 93%]
Pressure (altimeter): 30.29 inches Hg (1025.8 mb)
Winds: calm
Visibility: 7 miles (11 km)
Ceiling: 1800 feet AGL
Clouds: scattered clouds at 1200 feet AGL
broken clouds at 1800 feet AGL
overcast cloud deck at 3800 feet AGL
Weather: automated observation with no human augmentation;
there may or may not be significant weather present at this time

METAR text: KTMK 171315Z AUTO 00000KT 5SM BR OVC014 09/08 A3028 RMK AO2
Conditions at: KTMK (TILLAMOOK , OR, US) observed 1315 UTC 17 April 2019
Temperature: 9.0°C (48°F)
Dewpoint: 8.0°C (46°F) [RH = 93%]
Pressure (altimeter): 30.28 inches Hg (1025.5 mb)
Winds: calm
Visibility: 5 miles ( 8 km)
Ceiling: 1400 feet AGL
Clouds: overcast cloud deck at 1400 feet AGL
Weather: BR  (mist)

METAR text: KTMK 171255Z AUTO 00000KT 3SM RA BKN016 BKN022 OVC028 09/08 A3028 RMK AO2 P0001
Conditions at: KTMK (TILLAMOOK , OR, US) observed 1255 UTC 17 April 2019
Temperature: 9.0°C (48°F)
Dewpoint: 8.0°C (46°F) [RH = 93%]
Pressure (altimeter): 30.28 inches Hg (1025.5 mb)
Winds: calm
Visibility: 3 miles ( 5 km)
Ceiling: 1600 feet AGL
Clouds: broken clouds at 1600 feet AGL
broken clouds at 2200 feet AGL
overcast cloud deck at 2800 feet AGL
Weather: RA  (moderate rain)

METAR text: KTMK 171235Z AUTO 00000KT 7SM SCT016 BKN022 OVC044 09/08 A3028 RMK AO2
Conditions at: KTMK (TILLAMOOK , OR, US) observed 1235 UTC 17 April 2019
Temperature: 9.0°C (48°F)
Dewpoint: 8.0°C (46°F) [RH = 93%]
Pressure (altimeter): 30.28 inches Hg (1025.5 mb)
Winds: calm
Visibility: 7 miles (11 km)
Ceiling: 2200 feet AGL
Clouds: scattered clouds at 1600 feet AGL
broken clouds at 2200 feet AGL
overcast cloud deck at 4400 feet AGL
Weather: automated observation with no human augmentation;
there may or may not be significant weather present at this time

METAR text: KTMK 171215Z AUTO 00000KT 10SM SCT018 BKN029 OVC046 09/08 A3028 RMK AO2
Conditions at: KTMK (TILLAMOOK , OR, US) observed 1215 UTC 17 April 2019
Temperature: 9.0°C (48°F)
Dewpoint: 8.0°C (46°F) [RH = 93%]
Pressure (altimeter): 30.28 inches Hg (1025.5 mb)
Winds: calm
Visibility: 10 or more miles (16+ km)
Ceiling: 2900 feet AGL
Clouds: scattered clouds at 1800 feet AGL
broken clouds at 2900 feet AGL
overcast cloud deck at 4600 feet AGL
Weather: automated observation with no human augmentation;
there may or may not be significant weather present at this time

METAR text: KTMK 171155Z AUTO 00000KT 10SM SCT011 BKN027 OVC048 09/08 A3028 RMK AO2
Conditions at: KTMK (TILLAMOOK , OR, US) observed 1155 UTC 17 April 2019
Temperature: 9.0°C (48°F)
Dewpoint: 8.0°C (46°F) [RH = 93%]
Pressure (altimeter): 30.28 inches Hg (1025.5 mb)
Winds: calm
Visibility: 10 or more miles (16+ km)
Ceiling: 2700 feet AGL
Clouds: scattered clouds at 1100 feet AGL
broken clouds at 2700 feet AGL
overcast cloud deck at 4800 feet AGL
Weather: automated observation with no human augmentation;
there may or may not be significant weather present at this time

METAR text: KTMK 171135Z AUTO 17003KT 10SM SCT011 BKN025 OVC043 09/08 A3028 RMK AO2
Conditions at: KTMK (TILLAMOOK , OR, US) observed 1135 UTC 17 April 2019
Temperature: 9.0°C (48°F)
Dewpoint: 8.0°C (46°F) [RH = 93%]
Pressure (altimeter): 30.28 inches Hg (1025.5 mb)
Winds: from the S (170 degrees) at 3 MPH (3 knots; 1.5 m/s)
Visibility: 10 or more miles (16+ km)
Ceiling: 2500 feet AGL
Clouds: scattered clouds at 1100 feet AGL
broken clouds at 2500 feet AGL
overcast cloud deck at 4300 feet AGL
Weather: automated observation with no human augmentation;
there may or may not be significant weather present at this time

METAR text: KTMK 171115Z AUTO 00000KT 5SM BR SCT023 BKN032 OVC042 09/08 A3027 RMK AO2
Conditions at: KTMK (TILLAMOOK , OR, US) observed 1115 UTC 17 April 2019
Temperature: 9.0°C (48°F)
Dewpoint: 8.0°C (46°F) [RH = 93%]
Pressure (altimeter): 30.27 inches Hg (1025.1 mb)
Winds: calm
Visibility: 5 miles ( 8 km)
Ceiling: 3200 feet AGL
Clouds: scattered clouds at 2300 feet AGL
broken clouds at 3200 feet AGL
overcast cloud deck at 4200 feet AGL
Weather: BR  (mist)

METAR text: KTMK 171055Z AUTO 12003KT 4SM BR SCT015 BKN022 OVC041 09/08 A3028 RMK AO2 P0002
Conditions at: KTMK (TILLAMOOK , OR, US) observed 1055 UTC 17 April 2019
Temperature: 9.0°C (48°F)
Dewpoint: 8.0°C (46°F) [RH = 93%]
Pressure (altimeter): 30.28 inches Hg (1025.5 mb)
Winds: from the ESE (120 degrees) at 3 MPH (3 knots; 1.5 m/s)
Visibility: 4 miles ( 6 km)
Ceiling: 2200 feet AGL
Clouds: scattered clouds at 1500 feet AGL
broken clouds at 2200 feet AGL
overcast cloud deck at 4100 feet AGL
Weather: BR  (mist)

METAR text: KTMK 171035Z AUTO 00000KT 4SM DZ BKN015 OVC022 09/08 A3028 RMK AO2 P0002
Conditions at: KTMK (TILLAMOOK , OR, US) observed 1035 UTC 17 April 2019
Temperature: 9.0°C (48°F)
Dewpoint: 8.0°C (46°F) [RH = 93%]
Pressure (altimeter): 30.28 inches Hg (1025.5 mb)
Winds: calm
Visibility: 4 miles ( 6 km)
Ceiling: 1500 feet AGL
Clouds: broken clouds at 1500 feet AGL
overcast cloud deck at 2200 feet AGL
Weather: DZ  (moderate drizzle)

METAR text: KTMK 171015Z AUTO 22003KT 4SM +DZ SCT012 BKN018 OVC031 10/08 A3028 RMK AO2 P0001
Conditions at: KTMK (TILLAMOOK , OR, US) observed 1015 UTC 17 April 2019
Temperature: 10.0°C (50°F)
Dewpoint: 8.0°C (46°F) [RH = 87%]
Pressure (altimeter): 30.28 inches Hg (1025.5 mb)
Winds: from the SW (220 degrees) at 3 MPH (3 knots; 1.5 m/s)
Visibility: 4 miles ( 6 km)
Ceiling: 1800 feet AGL
Clouds: scattered clouds at 1200 feet AGL
broken clouds at 1800 feet AGL
overcast cloud deck at 3100 feet AGL
Weather: +DZ  (heavy drizzle)

METAR text: KTMK 170955Z AUTO 00000KT 10SM SCT016 BKN031 OVC060 10/08 A3027 RMK AO2
Conditions at: KTMK (TILLAMOOK , OR, US) observed 0955 UTC 17 April 2019
Temperature: 10.0°C (50°F)
Dewpoint: 8.0°C (46°F) [RH = 87%]
Pressure (altimeter): 30.27 inches Hg (1025.1 mb)
Winds: calm
Visibility: 10 or more miles (16+ km)
Ceiling: 3100 feet AGL
Clouds: scattered clouds at 1600 feet AGL
broken clouds at 3100 feet AGL
overcast cloud deck at 6000 feet AGL
Weather: automated observation with no human augmentation;
there may or may not be significant weather present at this time

METAR text: KTMK 170935Z AUTO 17004KT 10SM SCT010 BKN016 OVC021 10/08 A3026 RMK AO2
Conditions at: KTMK (TILLAMOOK , OR, US) observed 0935 UTC 17 April 2019
Temperature: 10.0°C (50°F)
Dewpoint: 8.0°C (46°F) [RH = 87%]
Pressure (altimeter): 30.26 inches Hg (1024.8 mb)
Winds: from the S (170 degrees) at 5 MPH (4 knots; 2.1 m/s)
Visibility: 10 or more miles (16+ km)
Ceiling: 1600 feet AGL
Clouds: scattered clouds at 1000 feet AGL
broken clouds at 1600 feet AGL
overcast cloud deck at 2100 feet AGL
Weather: automated observation with no human augmentation;
there may or may not be significant weather present at this time

METAR text: KTMK 170915Z AUTO 00000KT 10SM BKN009 OVC016 09/08 A3026 RMK AO2
Conditions at: KTMK (TILLAMOOK , OR, US) observed 0915 UTC 17 April 2019
Temperature: 9.0°C (48°F)
Dewpoint: 8.0°C (46°F) [RH = 93%]
Pressure (altimeter): 30.26 inches Hg (1024.8 mb)
Winds: calm
Visibility: 10 or more miles (16+ km)
Ceiling: 900 feet AGL
Clouds: broken clouds at 900 feet AGL
overcast cloud deck at 1600 feet AGL
Weather: automated observation with no human augmentation;
there may or may not be significant weather present at this time

METAR text: KTMK 170855Z AUTO 00000KT 2 1/2SM RA BKN009 OVC014 09/08 A3026 RMK AO2
Conditions at: KTMK (TILLAMOOK , OR, US) observed 0855 UTC 17 April 2019
Temperature: 9.0°C (48°F)
Dewpoint: 8.0°C (46°F) [RH = 93%]
Pressure (altimeter): 30.26 inches Hg (1024.8 mb)
Winds: calm
Visibility: 2.50 miles (4.02 km)
Ceiling: 900 feet AGL
Clouds: broken clouds at 900 feet AGL
overcast cloud deck at 1400 feet AGL
Weather: RA  (moderate rain)

METAR text: KTMK 170835Z AUTO 00000KT 10SM -RA BKN013 OVC020 09/08 A3025 RMK AO2
Conditions at: KTMK (TILLAMOOK , OR, US) observed 0835 UTC 17 April 2019
Temperature: 9.0°C (48°F)
Dewpoint: 8.0°C (46°F) [RH = 93%]
Pressure (altimeter): 30.25 inches Hg (1024.5 mb)
Winds: calm
Visibility: 10 or more miles (16+ km)
Ceiling: 1300 feet AGL
Clouds: broken clouds at 1300 feet AGL
overcast cloud deck at 2000 feet AGL
Weather: -RA  (light rain)

METAR text: KTMK 170815Z AUTO 00000KT 10SM -DZ OVC015 10/08 A3025 RMK AO2
Conditions at: KTMK (TILLAMOOK , OR, US) observed 0815 UTC 17 April 2019
Temperature: 10.0°C (50°F)
Dewpoint: 8.0°C (46°F) [RH = 87%]
Pressure (altimeter): 30.25 inches Hg (1024.5 mb)
Winds: calm
Visibility: 10 or more miles (16+ km)
Ceiling: 1500 feet AGL
Clouds: overcast cloud deck at 1500 feet AGL
Weather: -DZ  (light drizzle)

METAR text: KTMK 170755Z AUTO 00000KT 10SM -DZ SCT012 OVC018 09/08 A3024 RMK AO2 P0002
Conditions at: KTMK (TILLAMOOK , OR, US) observed 0755 UTC 17 April 2019
Temperature: 9.0°C (48°F)
Dewpoint: 8.0°C (46°F) [RH = 93%]
Pressure (altimeter): 30.24 inches Hg (1024.1 mb)
Winds: calm
Visibility: 10 or more miles (16+ km)
Ceiling: 1800 feet AGL
Clouds: scattered clouds at 1200 feet AGL
overcast cloud deck at 1800 feet AGL
Weather: -DZ  (light drizzle)

METAR text: KTMK 170735Z AUTO 00000KT 10SM -DZ BKN012 OVC018 09/08 A3023 RMK AO2 P0001
Conditions at: KTMK (TILLAMOOK , OR, US) observed 0735 UTC 17 April 2019
Temperature: 9.0°C (48°F)
Dewpoint: 8.0°C (46°F) [RH = 93%]
Pressure (altimeter): 30.23 inches Hg (1023.8 mb)
Winds: calm
Visibility: 10 or more miles (16+ km)
Ceiling: 1200 feet AGL
Clouds: broken clouds at 1200 feet AGL
overcast cloud deck at 1800 feet AGL
Weather: -DZ  (light drizzle)

METAR text: KTMK 170715Z AUTO 20003KT 10SM RA BKN010 OVC017 09/08 A3023 RMK AO2 P0001
Conditions at: KTMK (TILLAMOOK , OR, US) observed 0715 UTC 17 April 2019
Temperature: 9.0°C (48°F)
Dewpoint: 8.0°C (46°F) [RH = 93%]
Pressure (altimeter): 30.23 inches Hg (1023.8 mb)
Winds: from the SSW (200 degrees) at 3 MPH (3 knots; 1.5 m/s)
Visibility: 10 or more miles (16+ km)
Ceiling: 1000 feet AGL
Clouds: broken clouds at 1000 feet AGL
overcast cloud deck at 1700 feet AGL
Weather: RA  (moderate rain)

METAR text: KTMK 170655Z AUTO 00000KT 10SM RA BKN010 OVC013 09/08 A3023 RMK AO2 P0003
Conditions at: KTMK (TILLAMOOK , OR, US) observed 0655 UTC 17 April 2019
Temperature: 9.0°C (48°F)
Dewpoint: 8.0°C (46°F) [RH = 93%]
Pressure (altimeter): 30.23 inches Hg (1023.8 mb)
Winds: calm
Visibility: 10 or more miles (16+ km)
Ceiling: 1000 feet AGL
Clouds: broken clouds at 1000 feet AGL
overcast cloud deck at 1300 feet AGL
Weather: RA  (moderate rain)